Time;durP1;ratioP1;P1;durP2;ratioP2;P2;SDS_P1;SDS_P2;PMS_P1;PMS_P2;Temp;Humidity;BMP_temperature;BMP_pressure;BME280_temperature;BME280_humidity;BME280_pressure;Samples;Min_cycle;Max_cycle;Signal;HPM_P1;HPM_P2
2021/03/15 00:00:59;;;;;;;6.88;2.70;;;;;;;;;;5033872;28;20029;-74
2021/03/15 00:03:25;;;;;;;7.65;3.22;;;;;;;;;;5050861;28;20053;-74
2021/03/15 00:05:50;;;;;;;5.93;2.65;;;;;;;;;;5050520;28;20037;-74
2021/03/15 00:08:16;;;;;;;5.03;2.80;;;;;;;;;;5033876;28;20033;-74
2021/03/15 00:10:41;;;;;;;8.20;2.95;;;;;;;;;;5033678;28;20118;-74
2021/03/15 00:13:10;;;;;;;7.53;2.55;;;;;;;;;;5033842;28;20033;-74
2021/03/15 00:15:35;;;;;;;6.90;2.85;;;;;;;;;;5033690;28;20033;-74
2021/03/15 00:18:01;;;;;;;4.93;2.20;;;;;;;;;;5033784;28;20036;-74
2021/03/15 00:20:27;;;;;;;6.55;2.05;;;;;;;;;;5015503;28;20064;-74
2021/03/15 00:22:52;;;;;;;6.13;2.72;;;;;;;;;;5052077;28;20559;-74
2021/03/15 00:25:18;;;;;;;7.50;3.13;;;;;;;;;;5014331;28;20040;-74
2021/03/15 00:27:44;;;;;;;6.75;3.20;;;;;;;;;;5033905;28;20049;-75
2021/03/15 00:30:11;;;;;;;7.90;2.25;;;;;;;;;;5014694;28;20044;-75
2021/03/15 00:32:36;;;;;;;5.85;2.30;;;;;;;;;;5033570;28;20131;-76
2021/03/15 00:35:03;;;;;;;6.18;2.53;;;;;;;;;;5050388;28;20478;-76
2021/03/15 00:37:29;;;;;;;6.82;1.70;;;;;;;;;;5015696;28;20668;-76
2021/03/15 00:39:54;;;;;;;6.35;2.47;;;;;;;;;;5001344;28;20033;-76
2021/03/15 00:42:20;;;;;;;5.72;2.05;;;;;;;;;;5019111;28;20045;-76
2021/03/15 00:44:45;;;;;;;4.57;2.13;;;;;;;;;;5031599;28;20048;-76
2021/03/15 00:47:11;;;;;;;5.97;2.40;;;;;;;;;;5014828;28;20427;-76
2021/03/15 00:49:37;;;;;;;5.63;1.85;;;;;;;;;;5033513;28;20387;-76
2021/03/15 00:52:02;;;;;;;5.70;1.90;;;;;;;;;;5032923;28;20112;-76
2021/03/15 00:54:28;;;;;;;5.82;1.80;;;;;;;;;;5032904;28;20025;-76
2021/03/15 00:56:53;;;;;;;4.70;1.70;;;;;;;;;;5037131;28;20411;-75
2021/03/15 00:59:18;;;;;;;4.55;1.60;;;;;;;;;;5015444;28;20400;-76
2021/03/15 01:01:44;;;;;;;5.07;2.13;;;;;;;;;;5033076;28;20509;-77
2021/03/15 01:04:18;;;;;;;4.32;1.50;;;;;;;;;;5031745;28;20523;-76
2021/03/15 01:06:51;;;;;;;4.15;1.58;;;;;;;;;;5034411;28;20036;-76
2021/03/15 01:09:16;;;;;;;3.63;1.20;;;;;;;;;;5015994;28;20503;-77
2021/03/15 01:11:42;;;;;;;4.80;1.58;;;;;;;;;;5049623;28;20395;-76
2021/03/15 01:14:08;;;;;;;3.97;0.95;;;;;;;;;;5032064;28;20036;-76
2021/03/15 01:16:33;;;;;;;5.95;1.80;;;;;;;;;;5049102;28;20044;-76
2021/03/15 01:18:59;;;;;;;3.97;1.50;;;;;;;;;;5016136;28;20025;-76
2021/03/15 01:21:24;;;;;;;4.32;1.58;;;;;;;;;;5015497;28;20487;-76
2021/03/15 01:23:50;;;;;;;4.05;1.92;;;;;;;;;;5032384;28;20552;-76
2021/03/15 01:26:16;;;;;;;6.25;1.85;;;;;;;;;;5032417;28;20040;-77
2021/03/15 01:28:41;;;;;;;5.78;1.50;;;;;;;;;;5062392;28;20391;-77
2021/03/15 01:31:07;;;;;;;4.85;1.10;;;;;;;;;;5015620;28;20040;-77
2021/03/15 01:33:32;;;;;;;3.05;1.20;;;;;;;;;;5015856;28;20028;-77
2021/03/15 01:35:58;;;;;;;3.30;1.13;;;;;;;;;;5016144;28;20029;-76
2021/03/15 01:38:23;;;;;;;5.43;1.40;;;;;;;;;;5031883;28;20035;-76
2021/03/15 01:40:49;;;;;;;4.47;1.52;;;;;;;;;;5032873;28;20049;-76
2021/03/15 01:43:14;;;;;;;3.20;1.20;;;;;;;;;;5015149;28;20112;-76
2021/03/15 01:45:40;;;;;;;3.50;1.15;;;;;;;;;;5031723;28;20071;-76
2021/03/15 01:48:11;;;;;;;3.28;1.10;;;;;;;;;;5015841;28;20041;-76
2021/03/15 01:50:37;;;;;;;2.95;0.95;;;;;;;;;;5017541;28;20025;-76
2021/03/15 01:53:02;;;;;;;2.15;1.05;;;;;;;;;;5015764;28;20025;-76
2021/03/15 01:55:28;;;;;;;3.83;1.30;;;;;;;;;;5032467;28;20037;-76
2021/03/15 01:57:53;;;;;;;4.80;0.93;;;;;;;;;;5031612;28;20040;-75
2021/03/15 02:00:19;;;;;;;2.67;0.93;;;;;;;;;;5031474;28;20060;-76
2021/03/15 02:02:48;;;;;;;3.15;1.45;;;;;;;;;;5031842;28;20087;-76
2021/03/15 02:05:14;;;;;;;4.13;1.65;;;;;;;;;;5063005;28;20060;-76
2021/03/15 02:07:39;;;;;;;4.32;1.48;;;;;;;;;;5030714;28;20025;-76
2021/03/15 02:10:05;;;;;;;3.13;0.95;;;;;;;;;;5031931;28;20049;-76
2021/03/15 02:12:51;;;;;;;3.17;1.30;;;;;;;;;;5031524;28;20037;-77
2021/03/15 02:15:35;;;;;;;3.50;1.20;;;;;;;;;;5033978;28;20048;-77
2021/03/15 02:18:42;;;;;;;3.63;1.13;;;;;;;;;;5053794;28;20392;-77
2021/03/15 02:21:45;;;;;;;2.17;1.00;;;;;;;;;;5037978;28;20041;-78
2021/03/15 02:24:28;;;;;;;4.05;1.00;;;;;;;;;;5035865;28;20041;-75
2021/03/15 02:27:18;;;;;;;3.70;0.90;;;;;;;;;;5035472;28;20581;-77
2021/03/15 02:30:19;;;;;;;4.72;1.38;;;;;;;;;;5053686;28;20573;-77
2021/03/15 02:32:51;;;;;;;4.45;1.73;;;;;;;;;;5033288;28;20041;-78
2021/03/15 02:35:21;;;;;;;3.80;1.25;;;;;;;;;;5052142;28;20051;-77
2021/03/15 02:37:57;;;;;;;2.70;1.02;;;;;;;;;;5033573;28;20033;-77
2021/03/15 02:40:32;;;;;;;2.97;1.08;;;;;;;;;;5051878;28;20570;-78
2021/03/15 02:43:00;;;;;;;2.97;0.85;;;;;;;;;;5018744;28;20033;-76
2021/03/15 02:45:26;;;;;;;3.08;0.90;;;;;;;;;;5051637;28;20120;-76
2021/03/15 02:47:52;;;;;;;4.57;1.25;;;;;;;;;;5002867;28;20032;-76
2021/03/15 02:50:26;;;;;;;3.38;1.08;;;;;;;;;;5035216;28;20037;-78
2021/03/15 02:52:54;;;;;;;1.83;0.80;;;;;;;;;;5019963;28;20035;-76
2021/03/15 02:55:25;;;;;;;3.03;0.75;;;;;;;;;;5051391;28;20045;-76
2021/03/15 02:57:51;;;;;;;4.77;1.67;;;;;;;;;;5019055;28;20395;-76
2021/03/15 03:00:17;;;;;;;4.25;1.27;;;;;;;;;;5018416;28;20271;-76
2021/03/15 03:02:43;;;;;;;3.15;0.90;;;;;;;;;;5035244;28;20032;-76
2021/03/15 03:05:09;;;;;;;4.22;1.10;;;;;;;;;;5034892;28;20029;-76
2021/03/15 03:07:39;;;;;;;2.95;1.05;;;;;;;;;;5034911;28;20094;-76
2021/03/15 03:10:06;;;;;;;3.15;1.08;;;;;;;;;;5034892;28;20113;-77
2021/03/15 03:12:32;;;;;;;3.33;0.90;;;;;;;;;;5034841;28;20620;-76
2021/03/15 03:14:58;;;;;;;2.38;0.80;;;;;;;;;;5049239;28;20158;-76
2021/03/15 03:17:24;;;;;;;2.60;0.77;;;;;;;;;;5018338;28;20032;-76
2021/03/15 03:19:49;;;;;;;3.25;0.90;;;;;;;;;;5018404;28;20048;-76
2021/03/15 03:22:15;;;;;;;2.28;1.02;;;;;;;;;;5034275;28;20039;-76
2021/03/15 03:24:41;;;;;;;3.17;1.20;;;;;;;;;;5018076;28;20111;-76
2021/03/15 03:27:07;;;;;;;2.42;1.10;;;;;;;;;;5033832;28;20048;-77
2021/03/15 03:29:33;;;;;;;2.10;0.90;;;;;;;;;;5052050;28;20040;-77
2021/03/15 03:31:58;;;;;;;2.72;0.70;;;;;;;;;;5034130;28;20495;-77
2021/03/15 03:34:29;;;;;;;2.58;0.70;;;;;;;;;;5034510;28;20495;-77
2021/03/15 03:36:54;;;;;;;2.05;0.98;;;;;;;;;;5034678;28;20055;-77
2021/03/15 03:39:21;;;;;;;3.88;0.85;;;;;;;;;;5050857;28;20056;-75
2021/03/15 03:41:46;;;;;;;2.53;0.90;;;;;;;;;;5034941;28;20040;-76
2021/03/15 03:44:13;;;;;;;2.83;1.25;;;;;;;;;;5034327;28;20537;-77
2021/03/15 03:46:40;;;;;;;2.78;0.82;;;;;;;;;;5017671;28;20134;-76
2021/03/15 03:49:07;;;;;;;1.60;0.82;;;;;;;;;;5034405;28;20033;-77
2021/03/15 03:51:37;;;;;;;3.33;1.05;;;;;;;;;;5034473;28;20111;-77
2021/03/15 03:54:26;;;;;;;2.67;0.60;;;;;;;;;;5033308;28;20398;-78
2021/03/15 03:57:13;;;;;;;1.55;0.65;;;;;;;;;;5047139;28;20053;-77
2021/03/15 03:59:49;;;;;;;2.95;0.80;;;;;;;;;;5032842;28;20452;-77
2021/03/15 04:02:19;;;;;;;2.67;0.90;;;;;;;;;;5033957;28;20064;-76
2021/03/15 04:04:46;;;;;;;2.60;1.02;;;;;;;;;;5034254;28;20112;-75
2021/03/15 04:07:11;;;;;;;2.63;0.90;;;;;;;;;;5017270;28;20110;-75
2021/03/15 04:09:37;;;;;;;2.15;0.90;;;;;;;;;;5017602;28;20032;-76
2021/03/15 04:12:08;;;;;;;2.00;0.80;;;;;;;;;;5033078;28;20064;-75
2021/03/15 04:14:39;;;;;;;3.40;0.80;;;;;;;;;;5050635;28;20090;-74
2021/03/15 04:17:05;;;;;;;1.83;0.60;;;;;;;;;;5034384;28;20045;-76
2021/03/15 04:19:34;;;;;;;2.60;0.98;;;;;;;;;;5032953;28;20095;-77
2021/03/15 04:22:04;;;;;;;3.03;0.90;;;;;;;;;;5033364;28;20099;-76
2021/03/15 04:24:30;;;;;;;1.73;0.77;;;;;;;;;;5031882;28;20549;-74
2021/03/15 04:26:56;;;;;;;1.45;0.70;;;;;;;;;;5032580;28;20033;-75
2021/03/15 04:29:23;;;;;;;2.72;0.82;;;;;;;;;;5033216;28;20100;-75
2021/03/15 04:31:48;;;;;;;2.92;0.90;;;;;;;;;;5033368;28;20406;-74
2021/03/15 04:34:13;;;;;;;2.33;0.80;;;;;;;;;;5033652;28;20029;-74
2021/03/15 04:36:39;;;;;;;2.78;0.95;;;;;;;;;;5032805;28;20116;-74
2021/03/15 04:39:05;;;;;;;2.55;1.00;;;;;;;;;;5032984;28;20045;-76
2021/03/15 04:41:30;;;;;;;2.25;0.80;;;;;;;;;;5017334;28;20399;-74
2021/03/15 04:43:55;;;;;;;2.38;0.70;;;;;;;;;;5031470;28;20141;-74
2021/03/15 04:46:21;;;;;;;2.25;0.85;;;;;;;;;;5032925;28;20053;-74
2021/03/15 04:48:47;;;;;;;2.40;0.80;;;;;;;;;;5016013;28;20034;-74
2021/03/15 04:51:12;;;;;;;2.17;0.73;;;;;;;;;;5016485;28;20035;-75
2021/03/15 04:53:39;;;;;;;3.70;1.20;;;;;;;;;;5032954;28;20100;-74
2021/03/15 04:56:23;;;;;;;2.08;0.70;;;;;;;;;;5016201;28;20075;-74
2021/03/15 04:58:49;;;;;;;1.90;0.70;;;;;;;;;;5031414;28;20036;-74
2021/03/15 05:01:15;;;;;;;3.60;0.90;;;;;;;;;;5048856;28;20059;-74
2021/03/15 05:03:40;;;;;;;2.95;0.73;;;;;;;;;;5047301;28;20061;-74
2021/03/15 05:06:07;;;;;;;4.38;0.90;;;;;;;;;;5036033;28;20044;-74
2021/03/15 05:08:35;;;;;;;2.33;1.15;;;;;;;;;;5014818;28;20029;-74
2021/03/15 05:11:01;;;;;;;2.53;0.90;;;;;;;;;;5047638;28;20532;-74
2021/03/15 05:13:27;;;;;;;2.42;0.82;;;;;;;;;;5014337;28;20044;-74
2021/03/15 05:15:53;;;;;;;2.95;0.60;;;;;;;;;;5014560;28;20037;-75
2021/03/15 05:18:18;;;;;;;1.58;0.60;;;;;;;;;;5031405;28;20036;-74
2021/03/15 05:20:45;;;;;;;3.30;0.70;;;;;;;;;;5029878;28;20033;-74
2021/03/15 05:23:11;;;;;;;2.10;0.77;;;;;;;;;;5014705;28;20422;-74
2021/03/15 05:25:40;;;;;;;1.42;0.60;;;;;;;;;;5030698;28;20028;-74
2021/03/15 05:28:10;;;;;;;2.85;0.82;;;;;;;;;;5030354;28;20041;-75
2021/03/15 05:30:35;;;;;;;1.95;0.75;;;;;;;;;;5046887;28;21020;-74
2021/03/15 05:33:02;;;;;;;2.60;1.40;;;;;;;;;;5030720;28;20099;-74
2021/03/15 05:35:28;;;;;;;1.67;0.63;;;;;;;;;;5031414;28;20135;-74
2021/03/15 05:37:53;;;;;;;10.68;1.20;;;;;;;;;;5030867;28;20047;-75
2021/03/15 05:40:20;;;;;;;2.42;0.63;;;;;;;;;;5026351;28;20045;-74
2021/03/15 05:43:01;;;;;;;2.20;0.65;;;;;;;;;;5028731;28;20411;-74
2021/03/15 05:45:38;;;;;;;2.90;0.77;;;;;;;;;;5045479;28;20507;-74
2021/03/15 05:48:58;;;;;;;3.40;0.80;;;;;;;;;;5028819;28;20033;-74
2021/03/15 05:51:44;;;;;;;2.35;0.85;;;;;;;;;;5031242;28;20037;-74
2021/03/15 05:54:15;;;;;;;1.80;0.55;;;;;;;;;;5047976;28;20443;-74
2021/03/15 05:57:12;;;;;;;2.53;0.75;;;;;;;;;;5047318;28;20080;-75
2021/03/15 06:00:08;;;;;;;1.40;0.47;;;;;;;;;;5046888;28;20036;-74
2021/03/15 06:02:42;;;;;;;2.33;0.50;;;;;;;;;;5013407;28;20758;-75
2021/03/15 06:05:17;;;;;;;4.20;0.70;;;;;;;;;;5048530;28;20040;-75
2021/03/15 06:07:51;;;;;;;3.50;0.90;;;;;;;;;;5035240;28;20047;-75
2021/03/15 06:10:47;;;;;;;4.35;0.80;;;;;;;;;;5014324;28;20033;-75
2021/03/15 06:13:15;;;;;;;4.03;0.90;;;;;;;;;;5058803;28;20045;-75
2021/03/15 06:15:47;;;;;;;6.10;0.98;;;;;;;;;;5030878;28;20036;-75
2021/03/15 06:18:14;;;;;;;10.68;1.45;;;;;;;;;;5046845;28;20103;-75
2021/03/15 06:20:43;;;;;;;7.82;1.02;;;;;;;;;;5046322;28;20400;-75
2021/03/15 06:23:09;;;;;;;9.90;1.83;;;;;;;;;;5028242;28;20521;-74
2021/03/15 06:25:38;;;;;;;13.30;1.83;;;;;;;;;;5011163;28;20041;-74
2021/03/15 06:28:04;;;;;;;6.30;1.30;;;;;;;;;;5044968;28;20033;-74
2021/03/15 06:30:29;;;;;;;9.70;1.13;;;;;;;;;;5046228;28;20075;-74
2021/03/15 06:32:59;;;;;;;4.38;0.98;;;;;;;;;;5030189;28;20716;-74
2021/03/15 06:35:29;;;;;;;4.80;1.40;;;;;;;;;;5030698;28;20036;-76
2021/03/15 06:37:55;;;;;;;5.20;1.20;;;;;;;;;;5044419;28;20495;-76
2021/03/15 06:40:21;;;;;;;5.78;1.17;;;;;;;;;;5035855;28;20102;-76
2021/03/15 06:42:46;;;;;;;4.50;1.33;;;;;;;;;;5031748;28;20037;-76
2021/03/15 06:45:12;;;;;;;3.78;1.30;;;;;;;;;;5004231;28;20463;-76
2021/03/15 06:47:40;;;;;;;7.32;1.00;;;;;;;;;;5018672;28;20048;-75
2021/03/15 06:50:07;;;;;;;5.47;1.23;;;;;;;;;;5024556;28;20061;-75
2021/03/15 06:52:51;;;;;;;6.82;1.50;;;;;;;;;;5045822;28;20095;-76
2021/03/15 06:55:20;;;;;;;6.22;1.10;;;;;;;;;;5030243;28;20037;-76
2021/03/15 06:57:45;;;;;;;4.97;0.82;;;;;;;;;;5030133;28;20729;-76
2021/03/15 07:00:12;;;;;;;4.45;0.90;;;;;;;;;;5032028;28;20045;-76
2021/03/15 07:02:39;;;;;;;7.60;1.00;;;;;;;;;;5048347;28;20403;-76
2021/03/15 07:05:10;;;;;;;9.15;1.10;;;;;;;;;;5035086;28;20508;-76
2021/03/15 07:07:37;;;;;;;5.28;1.60;;;;;;;;;;5050721;28;20048;-76
2021/03/15 07:10:02;;;;;;;7.18;1.40;;;;;;;;;;5016988;28;20519;-76
2021/03/15 07:12:28;;;;;;;3.65;0.98;;;;;;;;;;5033078;28;20116;-76
2021/03/15 07:15:04;;;;;;;4.80;1.02;;;;;;;;;;5046929;28;20060;-76
2021/03/15 07:17:29;;;;;;;5.40;0.93;;;;;;;;;;5037766;28;20029;-76
2021/03/15 07:19:55;;;;;;;4.32;0.88;;;;;;;;;;5019877;28;20120;-76
2021/03/15 07:22:24;;;;;;;4.55;1.13;;;;;;;;;;5036603;28;20388;-78
2021/03/15 07:25:09;;;;;;;3.60;0.90;;;;;;;;;;5032572;28;20041;-78
2021/03/15 07:27:36;;;;;;;6.72;1.45;;;;;;;;;;5036789;28;20048;-78
2021/03/15 07:30:27;;;;;;;3.03;0.80;;;;;;;;;;5035843;28;20037;-78
2021/03/15 07:33:16;;;;;;;4.20;1.05;;;;;;;;;;5052832;28;20045;-77
2021/03/15 07:35:42;;;;;;;4.40;0.85;;;;;;;;;;5021947;28;20048;-77
2021/03/15 07:38:07;;;;;;;6.28;1.27;;;;;;;;;;5003425;28;20037;-77
2021/03/15 07:40:43;;;;;;;4.22;0.70;;;;;;;;;;5041281;28;20056;-77
2021/03/15 07:43:29;;;;;;;4.47;0.77;;;;;;;;;;5059063;28;20042;-77
2021/03/15 07:45:54;;;;;;;5.10;1.13;;;;;;;;;;5032060;28;20057;-77
2021/03/15 07:48:23;;;;;;;4.82;0.75;;;;;;;;;;5014557;28;20037;-76
2021/03/15 07:50:59;;;;;;;6.13;1.25;;;;;;;;;;5031372;28;20044;-76
2021/03/15 07:53:35;;;;;;;4.38;1.02;;;;;;;;;;5052689;28;20491;-77
2021/03/15 07:56:01;;;;;;;3.95;1.00;;;;;;;;;;5036540;28;20090;-76
2021/03/15 07:58:32;;;;;;;8.95;1.20;;;;;;;;;;5035496;28;20040;-76
2021/03/15 08:00:58;;;;;;;8.80;1.10;;;;;;;;;;5003141;28;20063;-77
2021/03/15 08:03:23;;;;;;;9.20;1.88;;;;;;;;;;5035279;28;20033;-78
2021/03/15 08:05:49;;;;;;;10.52;1.58;;;;;;;;;;5019319;28;20570;-77
2021/03/15 08:08:15;;;;;;;4.95;2.15;;;;;;;;;;5035318;28;20045;-77
2021/03/15 08:10:42;;;;;;;12.02;1.65;;;;;;;;;;5002671;28;20117;-77
2021/03/15 08:13:08;;;;;;;8.15;1.63;;;;;;;;;;5031513;28;20567;-78
2021/03/15 08:15:34;;;;;;;5.80;1.20;;;;;;;;;;4999523;28;20041;-78
2021/03/15 08:17:59;;;;;;;11.98;1.60;;;;;;;;;;5015647;28;20033;-77
2021/03/15 08:20:25;;;;;;;14.48;1.80;;;;;;;;;;5015507;28;20515;-76
2021/03/15 08:22:51;;;;;;;8.25;2.33;;;;;;;;;;5032980;28;20118;-76
2021/03/15 08:25:17;;;;;;;9.52;1.98;;;;;;;;;;5035166;28;20033;-76
2021/03/15 08:27:43;;;;;;;9.27;1.88;;;;;;;;;;5018370;28;20414;-78
2021/03/15 08:30:16;;;;;;;5.85;1.50;;;;;;;;;;5034854;28;20533;-78
2021/03/15 08:32:42;;;;;;;11.95;1.50;;;;;;;;;;5018737;28;20499;-82
2021/03/15 08:35:08;;;;;;;10.15;1.38;;;;;;;;;;5002368;28;20029;-82
2021/03/15 08:37:54;;;;;;;10.00;1.73;;;;;;;;;;5018823;28;20040;-83
2021/03/15 08:40:44;;;;;;;15.43;1.40;;;;;;;;;;5037937;28;20600;-83
2021/03/15 08:43:19;;;;;;;10.45;1.50;;;;;;;;;;5037467;28;20084;-82
2021/03/15 08:45:56;;;;;;;7.50;1.73;;;;;;;;;;5031289;28;20057;-82
2021/03/15 08:48:45;;;;;;;11.45;1.42;;;;;;;;;;5034273;28;20421;-82
2021/03/15 08:51:14;;;;;;;8.43;1.48;;;;;;;;;;5032861;28;20122;-82
2021/03/15 08:53:40;;;;;;;19.25;3.05;;;;;;;;;;5025655;28;20523;-81
2021/03/15 08:56:18;;;;;;;15.88;2.85;;;;;;;;;;5029658;28;20038;-82
2021/03/15 08:58:44;;;;;;;7.63;2.83;;;;;;;;;;5050496;28;20065;-82
2021/03/15 09:01:10;;;;;;;7.75;1.58;;;;;;;;;;5017816;28;20422;-82
2021/03/15 09:03:45;;;;;;;14.70;1.77;;;;;;;;;;5018178;28;20029;-82
2021/03/15 09:06:10;;;;;;;8.93;2.03;;;;;;;;;;5030428;28;20045;-81
2021/03/15 09:08:56;;;;;;;13.55;2.70;;;;;;;;;;5029380;28;20419;-80
2021/03/15 09:11:34;;;;;;;9.77;2.22;;;;;;;;;;5029961;28;20045;-81
2021/03/15 09:14:14;;;;;;;11.63;2.10;;;;;;;;;;5021223;28;20055;-81
2021/03/15 09:16:44;;;;;;;9.93;2.75;;;;;;;;;;5033703;28;20025;-81
2021/03/15 09:19:17;;;;;;;12.32;1.75;;;;;;;;;;5039675;28;20501;-80
2021/03/15 09:21:52;;;;;;;;;;;;;;;;;;5001321;28;20068;-81
2021/03/15 09:24:48;;;;;;;6.28;1.30;;;;;;;;;;5013522;28;19975;-80
2021/03/15 09:27:38;;;;;;;10.10;2.05;;;;;;;;;;5026534;28;20388;-80
2021/03/15 09:30:05;;;;;;;6.38;1.35;;;;;;;;;;5022364;28;20499;-80
2021/03/15 09:32:35;;;;;;;9.32;1.58;;;;;;;;;;5017786;28;20045;-80
2021/03/15 09:35:17;;;;;;;3.85;1.05;;;;;;;;;;4998243;28;20465;-81
2021/03/15 09:37:48;;;;;;;6.95;1.40;;;;;;;;;;5014927;28;20040;-80
2021/03/15 09:40:14;;;;;;;4.70;1.17;;;;;;;;;;5019053;28;20402;-81
2021/03/15 09:42:40;;;;;;;4.70;1.17;;;;;;;;;;5017231;28;20049;-80
2021/03/15 09:45:07;;;;;;;3.40;1.17;;;;;;;;;;5025722;28;20096;-80
2021/03/15 09:47:33;;;;;;;3.65;1.02;;;;;;;;;;5049109;28;20040;-80
2021/03/15 09:49:58;;;;;;;3.42;1.10;;;;;;;;;;5029748;28;20045;-81
2021/03/15 09:52:24;;;;;;;3.22;1.20;;;;;;;;;;5001458;28;20057;-80
2021/03/15 09:54:51;;;;;;;8.90;1.38;;;;;;;;;;5032395;28;20041;-81
2021/03/15 09:57:17;;;;;;;4.25;1.45;;;;;;;;;;5033944;28;20512;-81
2021/03/15 09:59:42;;;;;;;6.28;1.33;;;;;;;;;;5000096;28;20059;-81
2021/03/15 10:02:08;;;;;;;4.95;1.25;;;;;;;;;;5013965;28;20144;-80
2021/03/15 10:04:34;;;;;;;5.00;0.90;;;;;;;;;;5018357;28;20034;-80
2021/03/15 10:07:01;;;;;;;5.97;1.63;;;;;;;;;;4997411;28;20507;-79
2021/03/15 10:09:26;;;;;;;15.00;3.08;;;;;;;;;;5013625;28;20060;-80
2021/03/15 10:11:53;;;;;;;4.47;1.00;;;;;;;;;;5033420;28;20415;-80
2021/03/15 10:14:20;;;;;;;5.50;1.73;;;;;;;;;;5025264;28;20175;-80
2021/03/15 10:16:54;;;;;;;4.22;1.38;;;;;;;;;;5001483;28;20057;-80
2021/03/15 10:19:30;;;;;;;7.80;1.92;;;;;;;;;;5017187;28;20033;-80
2021/03/15 10:22:17;;;;;;;4.97;1.20;;;;;;;;;;5032879;28;20450;-81
2021/03/15 10:24:43;;;;;;;4.82;1.35;;;;;;;;;;5047987;28;20037;-81
2021/03/15 10:27:23;;;;;;;6.53;1.08;;;;;;;;;;5029513;28;20476;-81
2021/03/15 10:29:54;;;;;;;2.83;1.00;;;;;;;;;;5014558;28;20480;-80
2021/03/15 10:32:21;;;;;;;3.05;1.10;;;;;;;;;;5014182;28;20426;-80
2021/03/15 10:35:06;;;;;;;7.07;1.33;;;;;;;;;;5030305;28;20044;-80
2021/03/15 10:37:32;;;;;;;6.88;1.10;;;;;;;;;;5029697;28;20065;-80
2021/03/15 10:39:58;;;;;;;5.25;1.05;;;;;;;;;;5053076;28;20037;-79
2021/03/15 10:42:23;;;;;;;5.40;1.27;;;;;;;;;;5037026;28;20043;-79
2021/03/15 10:44:49;;;;;;;4.20;1.02;;;;;;;;;;5003111;28;20069;-79
2021/03/15 10:47:32;;;;;;;5.20;1.15;;;;;;;;;;5020449;28;20025;-79
2021/03/15 10:49:58;;;;;;;5.90;1.20;;;;;;;;;;5038641;28;20033;-79
2021/03/15 10:52:31;;;;;;;3.42;1.08;;;;;;;;;;5037354;28;20032;-79
2021/03/15 10:55:11;;;;;;;3.15;0.95;;;;;;;;;;5016859;28;20037;-79
2021/03/15 10:57:37;;;;;;;2.58;0.90;;;;;;;;;;5033433;28;20037;-79
2021/03/15 11:00:23;;;;;;;6.10;1.17;;;;;;;;;;5033333;28;20053;-78
2021/03/15 11:02:49;;;;;;;4.35;1.05;;;;;;;;;;5019458;28;20037;-79
2021/03/15 11:05:14;;;;;;;4.47;0.88;;;;;;;;;;5036115;28;20037;-79
2021/03/15 11:07:40;;;;;;;2.03;0.65;;;;;;;;;;5019930;28;20044;-79
2021/03/15 11:10:16;;;;;;;3.72;0.93;;;;;;;;;;5053274;28;20067;-79
2021/03/15 11:12:46;;;;;;;5.85;0.77;;;;;;;;;;5020258;28;20135;-80
2021/03/15 11:15:19;;;;;;;3.80;0.80;;;;;;;;;;5016328;28;20095;-79
2021/03/15 11:17:58;;;;;;;4.30;1.15;;;;;;;;;;5033219;28;20045;-80
2021/03/15 11:20:40;;;;;;;6.72;1.27;;;;;;;;;;5033931;28;20511;-79
2021/03/15 11:23:05;;;;;;;2.28;0.95;;;;;;;;;;5035839;28;20068;-79
2021/03/15 11:25:31;;;;;;;3.33;0.70;;;;;;;;;;5034703;28;20059;-79
2021/03/15 11:28:11;;;;;;;6.72;1.55;;;;;;;;;;4999770;28;20041;-80
2021/03/15 11:30:37;;;;;;;4.13;0.82;;;;;;;;;;5046053;28;20037;-80
2021/03/15 11:33:12;;;;;;;6.60;1.40;;;;;;;;;;5036028;28;20515;-79
2021/03/15 11:35:39;;;;;;;4.95;1.02;;;;;;;;;;5019794;28;20377;-80
2021/03/15 11:38:04;;;;;;;6.20;0.90;;;;;;;;;;5034984;28;20105;-80
2021/03/15 11:40:41;;;;;;;5.18;1.08;;;;;;;;;;5019141;28;20529;-79
2021/03/15 11:43:07;;;;;;;4.55;0.80;;;;;;;;;;5019076;28;20044;-80
2021/03/15 11:45:33;;;;;;;3.25;0.70;;;;;;;;;;5031039;28;20025;-81
2021/03/15 11:47:59;;;;;;;5.57;1.42;;;;;;;;;;5041863;28;20083;-80
2021/03/15 11:50:24;;;;;;;4.43;0.80;;;;;;;;;;5024177;28;20091;-80
2021/03/15 11:52:51;;;;;;;3.45;0.60;;;;;;;;;;5035506;28;20045;-81
2021/03/15 11:55:17;;;;;;;3.90;0.80;;;;;;;;;;5002715;28;20043;-80
2021/03/15 11:57:42;;;;;;;5.97;1.02;;;;;;;;;;5025192;28;20033;-80
2021/03/15 12:00:12;;;;;;;8.25;1.08;;;;;;;;;;4999128;28;20041;-79
2021/03/15 12:02:38;;;;;;;5.13;1.00;;;;;;;;;;5055367;28;20142;-79
2021/03/15 12:05:05;;;;;;;5.07;0.68;;;;;;;;;;5015860;28;20033;-80
2021/03/15 12:07:30;;;;;;;6.68;1.20;;;;;;;;;;5015595;28;20040;-80
2021/03/15 12:09:56;;;;;;;7.15;1.67;;;;;;;;;;5032026;28;20442;-79
2021/03/15 12:12:21;;;;;;;4.28;0.80;;;;;;;;;;4999154;28;20415;-79
2021/03/15 12:14:47;;;;;;;16.48;1.58;;;;;;;;;;5046959;28;20049;-82
2021/03/15 12:17:13;;;;;;;6.93;1.75;;;;;;;;;;5032437;28;20049;-83
2021/03/15 12:19:38;;;;;;;9.18;1.45;;;;;;;;;;5031894;28;20083;-84
2021/03/15 12:22:04;;;;;;;8.25;1.50;;;;;;;;;;5015311;28;20447;-84
2021/03/15 12:24:29;;;;;;;5.47;2.05;;;;;;;;;;4999391;28;20447;-84
2021/03/15 12:26:55;;;;;;;6.25;1.08;;;;;;;;;;4999587;28;20133;-85
2021/03/15 12:29:21;;;;;;;12.05;1.50;;;;;;;;;;5031668;28;20141;-82
2021/03/15 12:31:46;;;;;;;5.68;1.42;;;;;;;;;;5003838;28;20041;-82
2021/03/15 12:34:12;;;;;;;4.72;1.35;;;;;;;;;;5025359;28;20025;-81
2021/03/15 12:36:37;;;;;;;8.60;1.88;;;;;;;;;;5015170;28;20044;-82
2021/03/15 12:39:03;;;;;;;9.98;1.30;;;;;;;;;;5014524;28;20082;-80
2021/03/15 12:41:28;;;;;;;4.93;0.90;;;;;;;;;;5031482;28;20463;-81
2021/03/15 12:43:54;;;;;;;8.48;1.10;;;;;;;;;;5010705;28;20457;-81
2021/03/15 12:46:20;;;;;;;5.82;1.05;;;;;;;;;;5051469;28;20122;-81
2021/03/15 12:48:46;;;;;;;9.75;1.35;;;;;;;;;;5017257;28;20114;-80
2021/03/15 12:51:12;;;;;;;15.80;2.35;;;;;;;;;;5014285;28;20034;-81
2021/03/15 12:53:37;;;;;;;17.60;2.50;;;;;;;;;;5034803;28;20506;-81
2021/03/15 12:56:03;;;;;;;5.45;1.00;;;;;;;;;;5034659;28;20406;-80
2021/03/15 12:58:29;;;;;;;15.25;1.45;;;;;;;;;;4997921;28;20034;-80
2021/03/15 13:00:54;;;;;;;9.10;1.58;;;;;;;;;;5030248;28;20045;-80
2021/03/15 13:03:20;;;;;;;11.95;1.50;;;;;;;;;;5030796;28;20474;-79
2021/03/15 13:05:45;;;;;;;10.13;1.42;;;;;;;;;;5033984;28;20123;-79
2021/03/15 13:08:11;;;;;;;7.80;1.30;;;;;;;;;;4999216;28;20423;-80
2021/03/15 13:10:36;;;;;;;7.65;0.95;;;;;;;;;;5018069;28;20048;-79
2021/03/15 13:13:02;;;;;;;7.70;1.95;;;;;;;;;;5001602;28;20507;-80
2021/03/15 13:15:27;;;;;;;10.38;2.17;;;;;;;;;;5022327;28;20526;-80
2021/03/15 13:17:53;;;;;;;8.88;1.85;;;;;;;;;;4997972;28;20042;-79
2021/03/15 13:20:19;;;;;;;8.63;1.52;;;;;;;;;;5019703;28;20380;-78
2021/03/15 13:22:44;;;;;;;12.10;1.33;;;;;;;;;;5024222;28;20072;-78
2021/03/15 13:25:10;;;;;;;12.55;2.47;;;;;;;;;;5031098;28;20072;-78
2021/03/15 13:27:35;;;;;;;16.75;1.70;;;;;;;;;;5017500;28;20094;-80
2021/03/15 13:30:01;;;;;;;12.10;2.45;;;;;;;;;;5017444;28;20128;-78
2021/03/15 13:32:27;;;;;;;9.07;1.85;;;;;;;;;;5017197;28;20116;-76
2021/03/15 13:34:52;;;;;;;10.45;1.35;;;;;;;;;;5050552;28;20040;-75
2021/03/15 13:37:19;;;;;;;21.35;1.90;;;;;;;;;;5013579;28;20040;-76
2021/03/15 13:39:44;;;;;;;12.93;1.98;;;;;;;;;;5033373;28;20487;-77
2021/03/15 13:42:09;;;;;;;12.77;1.27;;;;;;;;;;5029242;28;20045;-76
2021/03/15 13:44:35;;;;;;;11.82;1.27;;;;;;;;;;5032525;28;20405;-76
2021/03/15 13:47:00;;;;;;;11.50;1.33;;;;;;;;;;5036674;28;20113;-76
2021/03/15 13:49:26;;;;;;;10.07;1.33;;;;;;;;;;5037097;28;20513;-76
2021/03/15 13:51:53;;;;;;;7.95;1.15;;;;;;;;;;5037762;28;20485;-76
2021/03/15 13:54:19;;;;;;;6.93;1.02;;;;;;;;;;5068890;28;20036;-77
2021/03/15 13:56:44;;;;;;;8.23;1.33;;;;;;;;;;5031753;28;20422;-76
2021/03/15 13:59:10;;;;;;;9.07;1.50;;;;;;;;;;5047041;28;20037;-76
2021/03/15 14:01:35;;;;;;;8.32;1.27;;;;;;;;;;5011389;28;20045;-75
2021/03/15 14:04:01;;;;;;;9.35;1.15;;;;;;;;;;5049883;28;20044;-75
2021/03/15 14:06:26;;;;;;;5.60;0.95;;;;;;;;;;5033756;28;20094;-76
2021/03/15 14:08:51;;;;;;;9.35;1.83;;;;;;;;;;5033089;28;20041;-75
2021/03/15 14:11:17;;;;;;;9.48;1.58;;;;;;;;;;4998407;28;20396;-76
2021/03/15 14:13:42;;;;;;;17.15;2.65;;;;;;;;;;5020862;28;20067;-76
2021/03/15 14:16:08;;;;;;;8.70;1.20;;;;;;;;;;5037648;28;20033;-75
2021/03/15 14:18:33;;;;;;;10.13;1.55;;;;;;;;;;5037904;28;20036;-76
2021/03/15 14:20:59;;;;;;;13.60;1.85;;;;;;;;;;5038328;28;20069;-77
2021/03/15 14:23:24;;;;;;;8.40;1.45;;;;;;;;;;5037502;28;20113;-77
2021/03/15 14:25:50;;;;;;;8.13;1.27;;;;;;;;;;5038154;28;20040;-77
2021/03/15 14:28:15;;;;;;;10.80;1.92;;;;;;;;;;5049747;28;20076;-77
2021/03/15 14:30:41;;;;;;;12.43;1.27;;;;;;;;;;5033664;28;20049;-77
2021/03/15 14:33:07;;;;;;;12.20;1.10;;;;;;;;;;5017847;28;20052;-77
2021/03/15 14:35:32;;;;;;;8.73;1.05;;;;;;;;;;5035870;28;20040;-76
2021/03/15 14:37:58;;;;;;;9.43;1.60;;;;;;;;;;5037224;28;20037;-77
2021/03/15 14:40:23;;;;;;;8.70;1.20;;;;;;;;;;5034334;28;20052;-76
2021/03/15 14:42:48;;;;;;;7.22;1.10;;;;;;;;;;5018746;28;20041;-76
2021/03/15 14:45:14;;;;;;;6.47;1.98;;;;;;;;;;5044449;28;20033;-77
2021/03/15 14:47:39;;;;;;;5.03;1.20;;;;;;;;;;5036944;28;20410;-78
2021/03/15 14:50:05;;;;;;;2.90;0.88;;;;;;;;;;5035615;28;20510;-78
2021/03/15 14:52:30;;;;;;;5.63;1.20;;;;;;;;;;5019716;28;20037;-78